createdAt,value
2023-01-31T00:01:37.876Z,6.79
2023-01-31T00:04:07.804Z,6.76
2023-01-31T00:06:38.568Z,6.85
2023-01-31T00:09:07.179Z,6.43
2023-01-31T00:11:33.914Z,6.37
2023-01-31T00:14:02.072Z,6.43
2023-01-31T00:16:29.013Z,6.52
2023-01-31T00:18:55.805Z,6.58
2023-01-31T00:21:28.893Z,6.67
2023-01-31T00:23:56.748Z,6.63
2023-01-31T00:26:26.466Z,6.52
2023-01-31T00:28:55.199Z,6.59
2023-01-31T00:31:24.095Z,6.55
2023-01-31T00:33:52.473Z,6.48
2023-01-31T00:36:22.602Z,6.58
2023-01-31T00:38:50.833Z,6.58
2023-01-31T00:41:19.498Z,6.59
2023-01-31T00:43:46.198Z,6.61
2023-01-31T00:46:12.889Z,6.57
2023-01-31T00:48:40.256Z,6.58
2023-01-31T00:51:07.977Z,6.45
2023-01-31T00:53:35.150Z,6.45
2023-01-31T00:56:06.234Z,6.32
2023-01-31T00:58:33.754Z,6.33
2023-01-31T01:01:28.098Z,6.28
2023-01-31T01:03:56.856Z,6.33
2023-01-31T01:06:24.585Z,6.33
2023-01-31T01:08:51.557Z,6.32
2023-01-31T01:11:21.413Z,6.37
2023-01-31T01:13:48.668Z,6.17
2023-01-31T01:16:20.070Z,6.28
2023-01-31T01:18:49.140Z,6.18
2023-01-31T01:21:19.403Z,6.09
2023-01-31T01:23:49.959Z,6.31
2023-01-31T01:26:18.516Z,6.38
2023-01-31T01:28:46.074Z,6.40
2023-01-31T01:31:16.338Z,6.52
2023-01-31T01:33:43.608Z,6.55
2023-01-31T01:36:13.345Z,6.57
2023-01-31T01:38:42.003Z,6.58
2023-01-31T01:41:10.630Z,6.55
2023-01-31T01:43:47.665Z,6.53
2023-01-31T01:46:20.010Z,6.55
2023-01-31T01:48:50.899Z,6.50
2023-01-31T01:51:19.724Z,6.51
2023-01-31T01:53:50.221Z,6.42
2023-01-31T01:56:21.274Z,6.42
2023-01-31T01:59:05.674Z,6.36
2023-01-31T02:01:36.196Z,6.38
2023-01-31T02:04:19.263Z,6.39
2023-01-31T02:06:47.265Z,6.39
2023-01-31T02:09:22.999Z,6.32
2023-01-31T02:11:50.069Z,6.36
2023-01-31T02:14:20.398Z,6.36
2023-01-31T02:16:47.125Z,6.40
2023-01-31T02:19:30.017Z,6.49
2023-01-31T02:22:23.895Z,6.49
2023-01-31T02:25:11.865Z,6.53
2023-01-31T02:28:14.339Z,6.47
2023-01-31T02:31:01.707Z,6.42
2023-01-31T02:34:21.371Z,6.34
2023-01-31T02:37:00.341Z,6.29
2023-01-31T02:39:45.559Z,6.23
2023-01-31T02:42:33.963Z,6.21
2023-01-31T02:45:11.979Z,6.15
2023-01-31T02:47:57.376Z,6.13
2023-01-31T02:50:38.028Z,6.08
2023-01-31T02:53:10.812Z,6.04
2023-01-31T02:56:07.349Z,6.04
2023-01-31T02:58:37.832Z,6.02
2023-01-31T03:01:10.239Z,5.96
2023-01-31T03:03:38.374Z,6.00
2023-01-31T03:06:23.591Z,5.94
2023-01-31T03:09:04.471Z,5.93
2023-01-31T03:11:57.940Z,5.91
2023-01-31T03:14:46.202Z,5.94
2023-01-31T03:17:34.299Z,5.92
2023-01-31T03:20:43.658Z,5.94
2023-01-31T03:23:18.034Z,5.97
2023-01-31T03:25:47.948Z,5.94
2023-01-31T03:28:20.949Z,5.94
2023-01-31T03:31:11.083Z,5.94
2023-01-31T03:33:40.264Z,5.92
2023-01-31T03:36:17.920Z,5.94
2023-01-31T03:39:13.306Z,5.96
2023-01-31T03:41:52.082Z,6.03
2023-01-31T03:44:39.382Z,6.07
2023-01-31T03:47:31.175Z,6.10
2023-01-31T03:50:03.358Z,5.74
2023-01-31T03:52:36.130Z,5.92
2023-01-31T03:55:11.322Z,6.02
2023-01-31T03:57:40.867Z,5.86
2023-01-31T04:00:12.910Z,5.90
2023-01-31T04:02:50.884Z,5.96
2023-01-31T04:05:22.753Z,6.03
2023-01-31T04:07:53.792Z,6.06
2023-01-31T04:10:24.246Z,6.06
2023-01-31T04:12:50.896Z,6.05
2023-01-31T04:15:18.501Z,6.12
2023-01-31T04:17:45.362Z,6.18
2023-01-31T04:20:13.179Z,6.25
2023-01-31T04:22:39.850Z,6.27
2023-01-31T04:25:07.812Z,6.32
2023-01-31T04:27:34.461Z,6.33
2023-01-31T04:30:01.101Z,6.34
2023-01-31T04:32:28.706Z,6.36
2023-01-31T04:34:55.357Z,6.39
2023-01-31T04:37:22.000Z,6.42
2023-01-31T04:39:48.633Z,6.46
2023-01-31T04:42:15.540Z,6.43
2023-01-31T04:44:42.137Z,6.48
2023-01-31T04:47:09.069Z,6.47
2023-01-31T04:49:35.695Z,6.53
2023-01-31T04:52:02.541Z,6.51
2023-01-31T04:54:29.246Z,6.54
2023-01-31T04:56:55.883Z,6.41
2023-01-31T04:59:22.540Z,6.29
2023-01-31T05:01:49.172Z,6.17
2023-01-31T05:04:15.984Z,6.35
2023-01-31T05:06:42.580Z,6.41
2023-01-31T05:09:09.377Z,6.32
2023-01-31T05:11:36.361Z,6.41
2023-01-31T05:14:03.339Z,6.45
2023-01-31T05:16:29.989Z,6.34
2023-01-31T05:18:56.675Z,6.37
2023-01-31T05:21:23.450Z,6.39
2023-01-31T05:23:50.098Z,6.40
2023-01-31T05:26:16.815Z,6.29
2023-01-31T05:28:43.505Z,6.36
2023-01-31T05:31:13.620Z,5.96
2023-01-31T05:33:40.334Z,6.19
2023-01-31T05:36:07.370Z,5.90
2023-01-31T05:38:34.039Z,6.06
2023-01-31T05:41:00.622Z,5.96
2023-01-31T05:43:27.286Z,6.06
2023-01-31T05:45:54.022Z,6.12
2023-01-31T05:48:21.555Z,6.28
2023-01-31T05:50:49.802Z,6.15
2023-01-31T05:53:16.443Z,6.10
2023-01-31T05:55:44.484Z,6.03
2023-01-31T05:58:11.203Z,6.09
2023-01-31T06:00:37.855Z,6.17
2023-01-31T06:03:04.538Z,6.07
2023-01-31T06:05:31.238Z,6.03
2023-01-31T06:07:57.941Z,5.96
2023-01-31T06:10:24.668Z,6.05
2023-01-31T06:12:51.348Z,5.81
2023-01-31T06:15:18.655Z,5.69
2023-01-31T06:17:45.652Z,5.68
2023-01-31T06:20:12.488Z,5.75
2023-01-31T06:22:39.216Z,5.95
2023-01-31T06:25:06.714Z,6.06
2023-01-31T06:27:34.585Z,6.05
2023-01-31T06:30:01.800Z,5.84
2023-01-31T06:32:28.872Z,5.89
2023-01-31T06:34:57.425Z,5.99
2023-01-31T06:37:24.419Z,5.93
2023-01-31T06:39:51.245Z,6.13
2023-01-31T06:42:18.202Z,6.09
2023-01-31T06:44:45.183Z,6.07
2023-01-31T06:47:13.043Z,6.05
2023-01-31T06:49:39.725Z,6.10
2023-01-31T06:52:06.474Z,6.28
2023-01-31T06:54:33.158Z,6.24
2023-01-31T06:56:59.856Z,6.29
2023-01-31T06:59:26.506Z,6.33
2023-01-31T07:01:53.500Z,6.37
2023-01-31T07:04:20.272Z,6.32
2023-01-31T07:06:47.031Z,6.39
2023-01-31T07:09:13.741Z,6.40
2023-01-31T07:11:40.421Z,6.43
2023-01-31T07:14:07.107Z,6.60
2023-01-31T07:16:33.997Z,6.46
2023-01-31T07:19:00.747Z,6.45
2023-01-31T07:21:30.171Z,6.40
2023-01-31T07:23:56.988Z,5.87
2023-01-31T07:26:23.695Z,6.14
2023-01-31T07:28:52.423Z,6.15
2023-01-31T07:31:19.236Z,5.89
2023-01-31T07:33:45.852Z,6.04
2023-01-31T07:36:15.847Z,6.11
2023-01-31T07:38:42.581Z,6.29
2023-01-31T07:41:10.968Z,6.09
2023-01-31T07:43:37.761Z,6.06
2023-01-31T07:46:11.406Z,6.17
2023-01-31T07:48:38.759Z,5.92
2023-01-31T07:51:05.790Z,5.90
2023-01-31T07:53:41.809Z,6.23
2023-01-31T07:56:16.702Z,6.53
2023-01-31T07:58:45.733Z,6.73
2023-01-31T08:01:34.142Z,6.89
2023-01-31T08:04:18.423Z,6.66
2023-01-31T08:06:48.277Z,6.68
2023-01-31T08:09:15.020Z,6.70
2023-01-31T08:11:41.742Z,6.42
2023-01-31T08:14:09.503Z,6.52
2023-01-31T08:16:36.973Z,6.59
2023-01-31T08:19:04.128Z,6.56
2023-01-31T08:21:31.611Z,6.39
2023-01-31T08:23:58.327Z,6.34
2023-01-31T08:26:25.158Z,6.51
2023-01-31T08:28:54.046Z,6.57
2023-01-31T08:31:23.534Z,6.72
2023-01-31T08:33:53.345Z,6.76
2023-01-31T08:36:23.286Z,6.71
2023-01-31T08:38:50.575Z,6.72
2023-01-31T08:41:19.253Z,6.83
2023-01-31T08:43:56.242Z,6.98
2023-01-31T08:46:25.842Z,7.09
2023-01-31T08:48:52.693Z,7.26
2023-01-31T08:51:19.706Z,7.32
2023-01-31T08:53:46.557Z,7.04
2023-01-31T08:56:14.322Z,7.41
2023-01-31T08:58:42.634Z,7.24
2023-01-31T09:01:12.346Z,7.07
2023-01-31T09:03:40.189Z,7.47
2023-01-31T09:06:10.693Z,7.44
2023-01-31T09:08:37.377Z,7.61
2023-01-31T09:11:04.215Z,7.59
2023-01-31T09:13:32.369Z,7.37
2023-01-31T09:15:59.944Z,7.61
2023-01-31T09:18:27.223Z,7.75
2023-01-31T09:20:54.184Z,7.55
2023-01-31T09:23:21.491Z,7.59
2023-01-31T09:25:55.351Z,7.38
2023-01-31T09:28:23.545Z,7.57
2023-01-31T09:30:53.484Z,7.54
2023-01-31T09:33:22.517Z,7.55
2023-01-31T09:35:57.553Z,7.57
2023-01-31T09:38:24.799Z,7.71
2023-01-31T09:40:54.451Z,7.69
2023-01-31T09:43:26.620Z,8.00
2023-01-31T09:45:59.558Z,8.10
2023-01-31T09:48:31.002Z,8.05
2023-01-31T09:50:59.431Z,8.14
2023-01-31T09:53:32.120Z,8.14
2023-01-31T09:56:29.469Z,8.12
2023-01-31T09:59:25.149Z,8.26
2023-01-31T10:02:14.904Z,8.29
2023-01-31T10:05:22.749Z,8.24
2023-01-31T10:08:33.623Z,7.93
2023-01-31T10:11:05.887Z,7.94
2023-01-31T10:14:11.344Z,8.05
2023-01-31T10:16:47.941Z,8.39
2023-01-31T10:19:25.105Z,8.50
2023-01-31T10:21:56.051Z,8.72
2023-01-31T10:24:55.024Z,8.78
2023-01-31T10:27:36.632Z,8.65
2023-01-31T10:30:08.008Z,8.32
2023-01-31T10:32:42.053Z,8.41
2023-01-31T10:35:21.541Z,8.48
2023-01-31T10:37:59.408Z,8.73
2023-01-31T10:40:35.468Z,8.54
2023-01-31T10:43:16.576Z,8.43
2023-01-31T10:45:43.438Z,8.48
2023-01-31T10:48:20.699Z,8.49
2023-01-31T10:50:57.278Z,8.53
2023-01-31T10:53:44.003Z,8.48
2023-01-31T10:56:12.037Z,8.52
2023-01-31T10:58:39.882Z,8.42
2023-01-31T11:01:11.750Z,8.35
2023-01-31T11:03:39.009Z,8.42
2023-01-31T11:06:06.511Z,8.39
2023-01-31T11:08:51.892Z,8.51
2023-01-31T11:11:21.362Z,8.41
2023-01-31T11:14:06.213Z,8.24
2023-01-31T11:16:42.189Z,8.26
2023-01-31T11:19:23.977Z,8.26
2023-01-31T11:21:52.831Z,8.47
2023-01-31T11:24:30.724Z,8.44
2023-01-31T11:27:07.363Z,8.53
2023-01-31T11:29:45.453Z,8.72
2023-01-31T11:32:22.565Z,8.67
2023-01-31T11:34:59.417Z,8.67
2023-01-31T11:37:28.460Z,8.85
2023-01-31T11:39:56.892Z,8.74
2023-01-31T11:42:23.995Z,8.71
2023-01-31T11:45:00.888Z,9.01
2023-01-31T11:47:33.539Z,8.89
2023-01-31T11:50:01.655Z,8.36
2023-01-31T11:52:31.600Z,8.75
2023-01-31T11:55:04.844Z,8.87
2023-01-31T11:57:39.663Z,8.70
2023-01-31T12:00:26.869Z,8.98
2023-01-31T12:03:16.032Z,9.14
2023-01-31T12:05:44.934Z,9.33
2023-01-31T12:08:32.993Z,9.18
2023-01-31T12:11:03.424Z,9.56
2023-01-31T12:13:30.230Z,9.53
2023-01-31T12:16:05.495Z,9.27
2023-01-31T12:18:32.090Z,9.16
2023-01-31T12:21:13.389Z,9.24
2023-01-31T12:24:27.995Z,8.84
2023-01-31T12:27:11.835Z,9.13
2023-01-31T12:29:47.281Z,9.10
2023-01-31T12:33:05.120Z,8.91
2023-01-31T12:35:52.244Z,8.90
2023-01-31T12:38:49.114Z,9.09
2023-01-31T12:41:21.868Z,9.18
2023-01-31T12:44:03.903Z,9.31
2023-01-31T12:46:54.757Z,9.04
2023-01-31T12:49:36.452Z,9.14
2023-01-31T12:52:18.816Z,9.31
2023-01-31T12:54:54.667Z,9.10
2023-01-31T12:57:42.449Z,9.37
2023-01-31T13:00:22.823Z,9.01
2023-01-31T13:03:07.707Z,9.35
2023-01-31T13:06:15.641Z,9.28
2023-01-31T13:09:07.309Z,9.28
2023-01-31T13:11:44.260Z,9.23
2023-01-31T13:14:20.286Z,9.07
2023-01-31T13:16:52.349Z,9.37
2023-01-31T13:19:50.663Z,9.15
2023-01-31T13:22:23.447Z,9.16
2023-01-31T13:24:59.672Z,9.41
2023-01-31T13:27:32.232Z,9.29
2023-01-31T13:30:17.574Z,9.18
2023-01-31T13:32:51.111Z,8.85
2023-01-31T13:35:30.148Z,9.06
2023-01-31T13:38:03.118Z,8.90
2023-01-31T13:40:34.222Z,9.15
2023-01-31T13:43:08.514Z,9.05
2023-01-31T13:46:02.181Z,8.56
2023-01-31T13:48:40.823Z,8.77
2023-01-31T13:51:07.422Z,8.99
2023-01-31T13:53:40.404Z,9.06
2023-01-31T13:56:11.355Z,9.15
2023-01-31T13:58:39.523Z,9.28
2023-01-31T14:01:13.322Z,9.15
2023-01-31T14:04:11.198Z,9.01
2023-01-31T14:06:56.009Z,9.14
2023-01-31T14:09:29.848Z,9.29
2023-01-31T14:11:59.518Z,9.15
2023-01-31T14:14:38.800Z,9.36
2023-01-31T14:17:10.673Z,9.21
2023-01-31T14:19:43.212Z,9.42
2023-01-31T14:22:17.315Z,9.27
2023-01-31T14:24:47.022Z,9.34
2023-01-31T14:27:22.948Z,9.36
2023-01-31T14:30:06.922Z,9.23
2023-01-31T14:32:39.424Z,9.35
2023-01-31T14:35:12.330Z,9.21
2023-01-31T14:38:24.029Z,9.21
2023-01-31T14:40:56.799Z,9.33
2023-01-31T14:43:48.523Z,9.10
2023-01-31T14:46:37.361Z,8.95
2023-01-31T14:49:20.240Z,9.09
2023-01-31T14:52:28.336Z,8.99
2023-01-31T14:55:49.795Z,8.94
2023-01-31T14:58:24.093Z,9.23
2023-01-31T15:00:54.491Z,9.32
2023-01-31T15:03:26.292Z,9.59
2023-01-31T15:05:56.887Z,9.55
2023-01-31T15:08:23.463Z,9.68
2023-01-31T15:10:55.132Z,9.63
2023-01-31T15:13:39.870Z,9.78
2023-01-31T15:16:15.393Z,9.71
2023-01-31T15:18:45.211Z,9.82
2023-01-31T15:21:17.704Z,9.78
2023-01-31T15:23:44.760Z,9.65
2023-01-31T15:26:16.275Z,9.35
2023-01-31T15:28:44.617Z,9.48
2023-01-31T15:31:36.671Z,9.41
2023-01-31T15:34:15.704Z,9.43
2023-01-31T15:36:50.482Z,9.26
2023-01-31T15:39:25.916Z,9.35
2023-01-31T15:41:52.565Z,9.17
2023-01-31T15:44:22.192Z,8.98
2023-01-31T15:46:51.744Z,8.87
2023-01-31T15:49:38.917Z,9.06
2023-01-31T15:52:22.583Z,9.12
2023-01-31T15:54:55.748Z,9.00
2023-01-31T15:57:27.951Z,8.84
2023-01-31T15:59:56.495Z,8.92
2023-01-31T16:02:29.478Z,8.94
2023-01-31T16:04:57.580Z,8.96
2023-01-31T16:07:29.254Z,8.87
2023-01-31T16:09:58.190Z,8.69
2023-01-31T16:12:26.798Z,8.87
2023-01-31T16:14:59.188Z,8.93
2023-01-31T16:17:27.798Z,8.90
2023-01-31T16:19:54.701Z,8.82
2023-01-31T16:22:28.732Z,8.76
2023-01-31T16:25:00.573Z,8.86
2023-01-31T16:27:32.652Z,8.91
2023-01-31T16:30:00.346Z,8.75
2023-01-31T16:32:32.829Z,8.79
2023-01-31T16:35:08.127Z,9.06
2023-01-31T16:37:37.728Z,8.79
2023-01-31T16:40:20.678Z,8.73
2023-01-31T16:42:47.687Z,8.80
2023-01-31T16:45:29.167Z,9.05
2023-01-31T16:48:08.909Z,8.87
2023-01-31T16:50:43.201Z,8.61
2023-01-31T16:53:19.297Z,9.17
2023-01-31T16:55:46.383Z,8.93
2023-01-31T16:58:50.118Z,8.86
2023-01-31T17:01:22.513Z,8.98
2023-01-31T17:04:06.191Z,9.21
2023-01-31T17:06:33.567Z,9.30
2023-01-31T17:09:00.779Z,9.25
2023-01-31T17:11:41.609Z,9.23
2023-01-31T17:14:09.737Z,9.09
2023-01-31T17:16:36.528Z,8.99
2023-01-31T17:19:03.284Z,9.14
2023-01-31T17:21:34.771Z,9.09
2023-01-31T17:24:01.610Z,9.07
2023-01-31T17:26:28.339Z,8.93
2023-01-31T17:29:01.987Z,9.04
2023-01-31T17:31:30.052Z,8.76
2023-01-31T17:33:57.042Z,9.04
2023-01-31T17:36:24.064Z,9.18
2023-01-31T17:38:52.846Z,9.02
2023-01-31T17:41:21.228Z,9.10
2023-01-31T17:43:48.056Z,8.78
2023-01-31T17:46:17.495Z,9.22
2023-01-31T17:48:44.827Z,9.12
2023-01-31T17:51:12.216Z,9.01
2023-01-31T17:53:48.842Z,9.18
2023-01-31T17:56:17.444Z,9.07
2023-01-31T17:58:44.124Z,9.11
2023-01-31T18:01:13.647Z,9.27
2023-01-31T18:03:40.895Z,9.19
2023-01-31T18:06:09.086Z,9.35
2023-01-31T18:08:35.952Z,9.20
2023-01-31T18:11:11.785Z,9.24
2023-01-31T18:13:38.944Z,9.19
2023-01-31T18:16:11.867Z,9.41
2023-01-31T18:18:43.665Z,9.30
2023-01-31T18:21:17.108Z,9.26
2023-01-31T18:23:48.370Z,9.35
2023-01-31T18:26:16.239Z,9.39
2023-01-31T18:28:43.335Z,9.64
2023-01-31T18:31:13.682Z,9.54
2023-01-31T18:33:42.163Z,9.29
2023-01-31T18:36:13.412Z,9.35
2023-01-31T18:38:42.725Z,9.13
2023-01-31T18:41:14.209Z,9.15
2023-01-31T18:43:42.023Z,9.11
2023-01-31T18:46:12.679Z,9.30
2023-01-31T18:48:40.350Z,9.09
2023-01-31T18:51:09.941Z,9.08
2023-01-31T18:53:39.522Z,9.06
2023-01-31T18:56:09.459Z,9.06
2023-01-31T18:58:37.913Z,9.17
2023-01-31T19:01:21.351Z,9.31
2023-01-31T19:03:50.960Z,9.29
2023-01-31T19:06:20.127Z,9.34
2023-01-31T19:08:55.286Z,9.17
2023-01-31T19:11:24.267Z,9.27
2023-01-31T19:13:51.500Z,9.27
2023-01-31T19:16:24.729Z,9.27
2023-01-31T19:18:53.886Z,9.25
2023-01-31T19:21:31.559Z,9.43
2023-01-31T19:24:02.706Z,9.47
2023-01-31T19:26:31.027Z,9.41
2023-01-31T19:28:59.315Z,9.48
2023-01-31T19:31:31.011Z,9.39
2023-01-31T19:34:00.902Z,9.45
2023-01-31T19:36:30.515Z,9.19
2023-01-31T19:38:58.857Z,9.08
2023-01-31T19:41:27.210Z,9.20
2023-01-31T19:43:56.627Z,9.15
2023-01-31T19:46:25.421Z,9.16
2023-01-31T19:48:52.050Z,9.25
2023-01-31T19:51:21.837Z,9.23
2023-01-31T19:53:49.513Z,9.33
2023-01-31T19:56:16.848Z,9.10
2023-01-31T19:58:43.796Z,9.22
2023-01-31T20:01:13.049Z,9.20
2023-01-31T20:03:40.074Z,9.12
2023-01-31T20:06:09.177Z,9.16
2023-01-31T20:08:36.562Z,9.26
2023-01-31T20:11:05.899Z,9.43
2023-01-31T20:13:32.648Z,9.48
2023-01-31T20:16:03.797Z,9.10
2023-01-31T20:18:31.551Z,9.29
2023-01-31T20:20:58.445Z,9.43
2023-01-31T20:23:25.613Z,9.39
2023-01-31T20:25:53.041Z,9.25
2023-01-31T20:28:20.435Z,9.15
2023-01-31T20:30:47.747Z,9.40
2023-01-31T20:33:15.520Z,9.21
2023-01-31T20:35:42.882Z,9.24
2023-01-31T20:38:10.690Z,8.77
2023-01-31T20:40:38.665Z,8.88
2023-01-31T20:43:05.970Z,8.88
2023-01-31T20:45:33.230Z,9.20
2023-01-31T20:48:00.248Z,9.30
2023-01-31T20:50:27.694Z,9.37
2023-01-31T20:52:55.354Z,9.55
2023-01-31T20:55:23.538Z,9.60
2023-01-31T20:57:51.161Z,9.49
2023-01-31T21:00:19.599Z,9.59
2023-01-31T21:02:47.273Z,9.30
2023-01-31T21:05:14.092Z,9.23
2023-01-31T21:07:40.793Z,9.19
2023-01-31T21:10:08.789Z,9.24
2023-01-31T21:12:35.577Z,9.30
2023-01-31T21:15:02.228Z,9.39
2023-01-31T21:17:39.506Z,9.37
2023-01-31T21:20:07.960Z,8.96
2023-01-31T21:22:34.955Z,9.31
2023-01-31T21:25:02.104Z,9.52
2023-01-31T21:27:29.163Z,9.54
2023-01-31T21:29:55.966Z,9.43
2023-01-31T21:32:22.599Z,9.50
2023-01-31T21:34:49.293Z,9.48
2023-01-31T21:37:15.947Z,9.58
2023-01-31T21:39:42.577Z,9.56
2023-01-31T21:42:16.615Z,9.59
2023-01-31T21:44:44.045Z,9.61
2023-01-31T21:47:11.610Z,9.52
2023-01-31T21:49:38.765Z,9.52
2023-01-31T21:52:06.657Z,9.78
2023-01-31T21:54:33.884Z,9.77
2023-01-31T21:57:00.566Z,9.61
2023-01-31T21:59:27.184Z,9.24
2023-01-31T22:01:53.923Z,9.08
2023-01-31T22:04:20.928Z,9.41
2023-01-31T22:06:50.733Z,9.69
2023-01-31T22:09:18.346Z,9.50
2023-01-31T22:11:47.447Z,9.64
2023-01-31T22:14:15.977Z,9.51
2023-01-31T22:16:43.313Z,9.63
2023-01-31T22:19:14.418Z,9.78
2023-01-31T22:21:42.236Z,9.86
2023-01-31T22:24:11.470Z,9.72
2023-01-31T22:26:41.883Z,9.72
2023-01-31T22:29:11.306Z,9.88
2023-01-31T22:31:38.703Z,9.69
2023-01-31T22:34:07.504Z,9.50
2023-01-31T22:36:34.912Z,9.46
2023-01-31T22:39:01.618Z,9.56
2023-01-31T22:41:28.762Z,9.59
2023-01-31T22:43:55.991Z,9.50
2023-01-31T22:46:25.388Z,9.56
2023-01-31T22:48:52.891Z,9.35
2023-01-31T22:51:22.384Z,9.42
2023-01-31T22:53:49.874Z,9.64
2023-01-31T22:56:28.207Z,9.55
2023-01-31T22:58:57.030Z,9.24
2023-01-31T23:01:26.676Z,9.34
2023-01-31T23:03:58.366Z,9.55
2023-01-31T23:06:26.445Z,9.45
2023-01-31T23:08:53.641Z,9.43
2023-01-31T23:11:21.161Z,9.40
2023-01-31T23:13:47.887Z,9.46
2023-01-31T23:16:18.345Z,9.29
2023-01-31T23:18:45.535Z,9.28
2023-01-31T23:21:15.169Z,9.50
2023-01-31T23:23:45.382Z,9.48
2023-01-31T23:26:13.412Z,9.44
2023-01-31T23:28:40.562Z,9.21
2023-01-31T23:31:07.780Z,9.01
2023-01-31T23:33:34.674Z,8.86
2023-01-31T23:36:01.324Z,8.96
2023-01-31T23:38:28.029Z,9.21
2023-01-31T23:40:55.014Z,9.23
2023-01-31T23:43:22.258Z,8.91
2023-01-31T23:45:49.636Z,8.98
2023-01-31T23:48:16.267Z,9.10
2023-01-31T23:50:43.203Z,9.34
2023-01-31T23:53:09.870Z,9.11
2023-01-31T23:55:37.046Z,9.36
2023-01-31T23:58:03.945Z,9.25
